createdAt,value
2019-01-02T00:05:26.867Z,99886.39
2019-01-02T00:20:32.924Z,99894.66
2019-01-02T00:35:38.700Z,99938.23
2019-01-02T00:50:45.002Z,99953.56
2019-01-02T01:05:52.110Z,99978.69
2019-01-02T01:20:58.158Z,99984.25
2019-01-02T01:36:04.365Z,100010.41
2019-01-02T01:51:10.863Z,100020.66
2019-01-02T02:06:17.059Z,100071.72
2019-01-02T02:21:23.424Z,100088.14
2019-01-02T02:36:29.998Z,100113.23
2019-01-02T02:51:36.802Z,100130.77
2019-01-02T03:06:44.749Z,100160.61
2019-01-02T03:21:51.126Z,100204.09
2019-01-02T03:36:57.298Z,100221.52
2019-01-02T03:52:03.948Z,100319.70
2019-01-02T04:07:10.097Z,100373.88
2019-01-02T04:22:16.362Z,100429.02
2019-01-02T04:37:22.662Z,100461.82
2019-01-02T04:52:29.034Z,100490.82
2019-01-02T05:07:34.852Z,100515.57
2019-01-02T05:22:42.561Z,100593.34
2019-01-02T05:37:48.701Z,100616.16
2019-01-02T05:52:55.053Z,100631.16
2019-01-02T06:08:01.282Z,100665.34
2019-01-02T06:23:07.563Z,100700.70
2019-01-02T06:38:14.105Z,100722.05
2019-01-02T06:53:20.672Z,100713.47
2019-01-02T07:08:26.795Z,100787.84
2019-01-02T07:23:32.581Z,100802.70
2019-01-02T07:39:01.630Z,100809.91
2019-01-02T07:54:44.847Z,100836.53
2019-01-02T08:09:59.755Z,100865.20
2019-01-02T08:26:01.331Z,100908.21
2019-01-02T08:41:30.815Z,100948.63
2019-01-02T08:56:40.386Z,100971.46
2019-01-02T09:11:55.575Z,101028.79
2019-01-02T09:27:10.308Z,101026.52
2019-01-02T09:42:51.304Z,101081.48
2019-01-02T09:58:15.907Z,101118.73
2019-01-02T10:13:57.012Z,101129.84
2019-01-02T10:29:09.013Z,101156.28
2019-01-02T10:44:40.954Z,101160.09
2019-01-02T11:00:14.431Z,101188.49
2019-01-02T11:15:32.243Z,101198.71
2019-01-02T11:30:49.638Z,101210.49
2019-01-02T11:45:56.013Z,101237.35
2019-01-02T12:01:02.036Z,101251.03
2019-01-02T12:16:08.079Z,101275.43
2019-01-02T12:31:14.142Z,101307.70
2019-01-02T12:46:20.574Z,101343.66
2019-01-02T13:01:30.314Z,101374.38
2019-01-02T13:16:49.831Z,101403.88
2019-01-02T13:32:04.507Z,101424.48
2019-01-02T13:47:22.415Z,101433.92
2019-01-02T14:02:28.469Z,101465.19
2019-01-02T14:17:34.639Z,101485.89
2019-01-02T14:32:40.534Z,101488.80
2019-01-02T14:47:46.632Z,101519.46
2019-01-02T15:02:52.724Z,101526.36
2019-01-02T15:17:58.592Z,101553.92
2019-01-02T15:33:05.533Z,101575.09
2019-01-02T15:48:11.549Z,101595.16
2019-01-02T16:03:17.641Z,101607.72
2019-01-02T16:18:24.116Z,101623.43
2019-01-02T16:33:31.008Z,101654.05
2019-01-02T16:48:36.850Z,101661.20
2019-01-02T17:03:42.791Z,101688.41
2019-01-02T17:18:48.906Z,101699.71
2019-01-02T17:33:54.877Z,101728.14
2019-01-02T17:49:01.227Z,101769.73
2019-01-02T18:04:08.698Z,101746.67
2019-01-02T18:19:14.866Z,101756.56
2019-01-02T18:34:20.883Z,101771.97
2019-01-02T18:49:26.818Z,101797.59
2019-01-02T19:04:32.846Z,101782.76
2019-01-02T19:19:39.107Z,101858.58
2019-01-02T19:34:45.163Z,101825.14
2019-01-02T19:49:50.958Z,101851.13
2019-01-02T20:04:56.695Z,101903.61
2019-01-02T20:20:03.198Z,101883.23
2019-01-02T20:35:09.593Z,101913.34
2019-01-02T20:50:15.974Z,101901.83
2019-01-02T21:05:22.022Z,101920.95
2019-01-02T21:20:28.284Z,101917.09
2019-01-02T21:35:34.498Z,101892.80
2019-01-02T21:50:40.648Z,101910.03
2019-01-02T22:05:46.672Z,101903.72
2019-01-02T22:20:53.472Z,101951.53
2019-01-02T22:35:59.891Z,101935.14
2019-01-02T22:51:06.280Z,101926.84
2019-01-02T23:06:31.770Z,101943.66
2019-01-02T23:21:39.852Z,101935.81
2019-01-02T23:36:54.806Z,101944.83
2019-01-02T23:52:05.582Z,101967.61
